Time;durP1;ratioP1;P1;durP2;ratioP2;P2;SDS_P1;SDS_P2;PMS_P1;PMS_P2;Temp;Humidity;BMP_temperature;BMP_pressure;BME280_temperature;BME280_humidity;BME280_pressure;Samples;Min_cycle;Max_cycle;Signal;HPM_P1;HPM_P2
2021/10/29 00:02:20;;;;;;;19.15;10.20;;;;;;;14.29;64.84;100720.06;4975737;28;119899;-70
2021/10/29 00:04:45;;;;;;;19.52;10.55;;;;;;;14.34;64.49;100725.69;4983622;28;119404;-71
2021/10/29 00:07:11;;;;;;;18.95;10.60;;;;;;;14.38;65.00;100728.25;4973077;28;119933;-71
2021/10/29 00:09:37;;;;;;;15.25;10.10;;;;;;;14.34;64.68;100727.69;4958551;28;119576;-71
2021/10/29 00:12:04;;;;;;;17.15;10.73;;;;;;;14.33;64.61;100732.44;4956047;28;120629;-70
2021/10/29 00:14:33;;;;;;;17.25;10.70;;;;;;;14.33;64.98;100726.16;4980051;28;119973;-70
2021/10/29 00:17:00;;;;;;;14.70;10.50;;;;;;;14.30;64.83;100724.34;4976893;28;119900;-70
2021/10/29 00:19:26;;;;;;;17.20;11.38;;;;;;;14.28;64.62;100724.06;4979471;28;119514;-70
2021/10/29 00:21:53;;;;;;;15.63;10.77;;;;;;;14.29;64.93;100728.34;4958852;28;120149;-70
2021/10/29 00:24:20;;;;;;;15.73;10.55;;;;;;;14.27;64.71;100725.31;4976535;28;119857;-71
2021/10/29 00:26:46;;;;;;;17.70;11.63;;;;;;;14.26;64.84;100721.03;4955148;28;120067;-70
2021/10/29 00:29:12;;;;;;;18.70;11.02;;;;;;;14.22;64.78;100715.69;4977295;28;119823;-70
2021/10/29 00:31:39;;;;;;;18.73;11.70;;;;;;;14.23;64.98;100717.22;4972052;28;119910;-70
2021/10/29 00:34:05;;;;;;;17.13;10.90;;;;;;;14.19;65.00;100722.13;4965723;28;119675;-70
2021/10/29 00:36:30;;;;;;;16.95;11.82;;;;;;;14.14;64.80;100707.00;4979708;28;119758;-70
2021/10/29 00:38:56;;;;;;;16.55;11.55;;;;;;;14.17;64.67;100715.56;4977382;28;121212;-70
2021/10/29 00:41:21;;;;;;;21.90;11.65;;;;;;;14.17;65.13;100708.06;4980867;28;119977;-70
2021/10/29 00:43:47;;;;;;;17.17;10.63;;;;;;;14.14;64.75;100709.78;4978004;28;120068;-70
2021/10/29 00:46:13;;;;;;;18.40;12.13;;;;;;;14.12;64.89;100701.22;4977170;28;119739;-70
2021/10/29 00:48:38;;;;;;;16.90;11.63;;;;;;;14.11;64.85;100709.97;4981468;28;119733;-70
2021/10/29 00:51:05;;;;;;;15.20;10.55;;;;;;;14.05;64.65;100704.34;4975099;28;119480;-70
2021/10/29 00:53:32;;;;;;;18.17;11.82;;;;;;;14.06;64.83;100705.13;4977065;28;119569;-70
2021/10/29 00:55:58;;;;;;;18.73;12.38;;;;;;;14.02;65.02;100702.53;4969397;28;119985;-70
2021/10/29 00:58:24;;;;;;;19.88;11.48;;;;;;;14.00;64.59;100693.97;4973643;28;120249;-71
2021/10/29 01:00:50;;;;;;;18.25;11.50;;;;;;;13.99;64.69;100697.97;4979872;28;119690;-70
2021/10/29 01:03:15;;;;;;;16.42;11.48;;;;;;;13.98;64.98;100695.69;4975384;28;120533;-70
2021/10/29 01:05:41;;;;;;;16.33;10.68;;;;;;;13.94;64.88;100686.81;4973487;28;119682;-71
2021/10/29 01:08:09;;;;;;;23.42;13.05;;;;;;;13.95;64.89;100691.09;4964428;28;119897;-71
2021/10/29 01:10:35;;;;;;;20.08;12.38;;;;;;;13.86;65.26;100683.69;4975728;28;119403;-70
2021/10/29 01:13:01;;;;;;;18.88;12.15;;;;;;;13.92;64.89;100687.28;4972802;28;121025;-71
2021/10/29 01:15:27;;;;;;;18.60;12.75;;;;;;;13.90;64.81;100684.25;4980926;28;119911;-71
2021/10/29 01:17:52;;;;;;;19.35;12.60;;;;;;;13.88;64.79;100688.72;4976775;28;120483;-71
2021/10/29 01:20:19;;;;;;;21.45;13.00;;;;;;;13.87;65.38;100679.69;4976469;28;119805;-70
2021/10/29 01:22:45;;;;;;;20.10;13.00;;;;;;;13.83;64.76;100673.59;4975649;28;120204;-71
2021/10/29 01:25:12;;;;;;;18.35;13.05;;;;;;;13.86;65.07;100680.16;4961193;28;120335;-70
2021/10/29 01:27:39;;;;;;;18.42;12.30;;;;;;;13.83;65.16;100674.34;4976311;28;120639;-71
2021/10/29 01:30:06;;;;;;;18.20;12.85;;;;;;;13.80;64.68;100675.31;4982579;28;121368;-70
2021/10/29 01:32:32;;;;;;;18.30;12.80;;;;;;;13.78;64.97;100679.78;4975273;28;120115;-70
2021/10/29 01:34:57;;;;;;;17.75;12.70;;;;;;;13.78;64.91;100679.78;4974719;28;119552;-70
2021/10/29 01:37:23;;;;;;;18.95;14.25;;;;;;;13.75;65.09;100677.97;4956336;28;121178;-70
2021/10/29 01:39:48;;;;;;;21.80;14.93;;;;;;;13.73;64.90;100683.97;4960879;28;120654;-70
2021/10/29 01:42:14;;;;;;;19.25;14.00;;;;;;;13.70;64.83;100678.59;4965936;28;120034;-70
2021/10/29 01:44:41;;;;;;;20.27;14.63;;;;;;;13.66;64.69;100673.28;4975921;28;120036;-71
2021/10/29 01:47:08;;;;;;;21.88;14.63;;;;;;;13.69;65.24;100674.31;4974623;28;119775;-71
2021/10/29 01:49:35;;;;;;;23.50;14.80;;;;;;;13.68;64.80;100661.78;4969847;28;119546;-70
2021/10/29 01:52:01;;;;;;;22.83;14.60;;;;;;;13.65;64.87;100659.97;4981235;28;120017;-71
2021/10/29 01:54:27;;;;;;;24.58;15.60;;;;;;;13.64;65.16;100658.44;4976021;28;119483;-70
2021/10/29 01:56:52;;;;;;;22.30;14.82;;;;;;;13.64;64.81;100655.69;4974720;28;120151;-70
2021/10/29 01:59:18;;;;;;;22.27;14.88;;;;;;;13.61;64.92;100651.13;4961639;28;120117;-70
2021/10/29 02:01:44;;;;;;;22.42;15.48;;;;;;;13.61;65.27;100656.63;4940485;28;119697;-70
2021/10/29 02:04:12;;;;;;;25.67;15.00;;;;;;;13.60;64.90;100652.34;4967218;28;119629;-70
2021/10/29 02:06:38;;;;;;;22.50;14.93;;;;;;;13.55;64.89;100659.28;4965885;28;120615;-70
2021/10/29 02:09:07;;;;;;;22.10;14.20;;;;;;;13.54;65.13;100662.50;4956277;28;119577;-70
2021/10/29 02:11:33;;;;;;;22.60;14.63;;;;;;;13.50;65.13;100659.94;4973225;28;119883;-70
2021/10/29 02:13:58;;;;;;;24.75;15.85;;;;;;;13.52;65.45;100658.22;4982197;28;119462;-71
2021/10/29 02:16:24;;;;;;;24.52;16.52;;;;;;;13.51;65.32;100656.72;4977317;28;119787;-70
2021/10/29 02:18:50;;;;;;;23.23;15.88;;;;;;;13.51;65.00;100658.72;4973115;28;119290;-70
2021/10/29 02:21:15;;;;;;;24.15;16.52;;;;;;;13.48;64.60;100652.13;4982029;28;119769;-71
2021/10/29 02:23:41;;;;;;;23.98;15.98;;;;;;;13.45;64.97;100658.56;4970231;28;123073;-70
2021/10/29 02:26:06;;;;;;;27.33;16.98;;;;;;;13.39;65.25;100649.44;4976498;28;120169;-71
2021/10/29 02:28:32;;;;;;;28.20;16.90;;;;;;;13.41;65.34;100655.25;4977009;28;119442;-70
2021/10/29 02:30:58;;;;;;;28.25;17.73;;;;;;;13.40;65.45;100648.22;4971228;28;119763;-70
2021/10/29 02:33:23;;;;;;;25.98;17.10;;;;;;;13.42;65.53;100651.25;4958949;28;119732;-70
2021/10/29 02:35:49;;;;;;;24.63;16.42;;;;;;;13.43;65.51;100647.25;4957331;28;120913;-71
2021/10/29 02:38:15;;;;;;;24.58;15.95;;;;;;;13.38;65.31;100634.16;4971127;28;120039;-70
2021/10/29 02:40:41;;;;;;;24.67;16.50;;;;;;;13.43;65.35;100639.00;4956162;28;120127;-70
2021/10/29 02:43:07;;;;;;;25.58;16.42;;;;;;;13.44;65.32;100637.00;4956338;28;120788;-70
2021/10/29 02:45:34;;;;;;;24.15;16.25;;;;;;;13.37;64.64;100631.88;4969538;28;123101;-71
2021/10/29 02:48:00;;;;;;;29.73;17.23;;;;;;;13.31;64.69;100629.00;4957538;28;120521;-70
2021/10/29 02:50:26;;;;;;;29.90;17.63;;;;;;;13.36;65.41;100639.38;4971846;28;120419;-70
2021/10/29 02:52:51;;;;;;;25.02;16.52;;;;;;;13.34;65.12;100644.59;4973463;28;119749;-71
2021/10/29 02:55:18;;;;;;;28.75;17.80;;;;;;;13.35;65.46;100642.59;4973093;28;121827;-70
2021/10/29 02:57:45;;;;;;;29.33;18.20;;;;;;;13.34;65.32;100647.34;4972892;28;119269;-70
2021/10/29 03:00:14;;;;;;;24.52;17.63;;;;;;;13.35;65.36;100645.34;4941150;28;119834;-71
2021/10/29 03:02:41;;;;;;;27.67;18.25;;;;;;;13.33;65.37;100650.56;4975510;28;119476;-71
2021/10/29 03:05:08;;;;;;;26.65;17.38;;;;;;;13.28;64.98;100637.44;4973745;28;120083;-70
2021/10/29 03:07:36;;;;;;;31.23;17.30;;;;;;;13.32;65.26;100638.78;4975953;28;119759;-70
2021/10/29 03:10:03;;;;;;;24.13;16.80;;;;;;;13.31;65.29;100636.50;4954797;28;122174;-70
2021/10/29 03:12:33;;;;;;;29.58;18.35;;;;;;;13.30;65.25;100634.97;4975553;28;120442;-70
2021/10/29 03:14:59;;;;;;;29.63;18.30;;;;;;;13.29;65.49;100627.94;4974270;28;119483;-70
2021/10/29 03:17:24;;;;;;;26.25;18.23;;;;;;;13.24;65.17;100618.31;4990725;28;119835;-70
2021/10/29 03:19:50;;;;;;;25.40;17.77;;;;;;;13.27;65.32;100622.91;4976724;28;119953;-70
2021/10/29 03:22:18;;;;;;;26.65;18.00;;;;;;;13.29;65.34;100633.47;4978310;28;120088;-70
2021/10/29 03:24:46;;;;;;;30.15;18.70;;;;;;;13.28;65.33;100624.44;4973942;28;119421;-70
2021/10/29 03:27:12;;;;;;;30.45;18.15;;;;;;;13.31;65.20;100631.00;4948459;28;122539;-70
2021/10/29 03:29:41;;;;;;;28.83;20.02;;;;;;;13.28;65.30;100626.44;4973462;28;119515;-71
2021/10/29 03:32:08;;;;;;;27.75;18.55;;;;;;;13.28;65.13;100620.91;4981492;28;119695;-70
2021/10/29 03:34:33;;;;;;;29.48;19.60;;;;;;;13.26;65.40;100624.16;4976968;28;119553;-70
2021/10/29 03:37:01;;;;;;;31.70;18.27;;;;;;;13.28;65.13;100623.66;4975875;28;121348;-70
2021/10/29 03:39:30;;;;;;;26.45;17.52;;;;;;;13.26;65.22;100621.38;4981773;28;119939;-70
2021/10/29 03:42:01;;;;;;;31.05;19.67;;;;;;;13.26;64.70;100626.91;4972090;28;121802;-70
2021/10/29 03:44:46;;;;;;;30.60;20.17;;;;;;;13.24;65.22;100623.81;4973487;28;119611;-70
2021/10/29 03:47:12;;;;;;;28.10;18.25;;;;;;;13.22;65.24;100623.53;4966301;28;122160;-70
2021/10/29 03:50:13;;;;;;;27.10;18.75;;;;;;;13.21;64.98;100624.78;4975016;28;119848;-70
2021/10/29 03:52:36;;;;;;;32.90;19.65;;;;;;;13.20;65.28;100620.50;4961298;28;119937;-70
2021/10/29 03:55:07;;;;;;;27.98;19.35;;;;;;;13.20;65.14;100613.00;4975439;28;119907;-70
2021/10/29 03:57:33;;;;;;;36.00;19.23;;;;;;;13.20;64.93;100612.22;4959667;28;122909;-70
2021/10/29 03:59:59;;;;;;;28.77;18.80;;;;;;;13.20;65.08;100612.22;4973759;28;120116;-71
2021/10/29 04:02:25;;;;;;;30.30;19.42;;;;;;;13.19;65.26;100599.69;4986331;28;119667;-70
2021/10/29 04:04:51;;;;;;;27.58;19.02;;;;;;;13.20;64.77;100612.22;4972863;28;119507;-71
2021/10/29 04:07:18;;;;;;;34.05;20.77;;;;;;;13.15;64.96;100605.34;4974133;28;120218;-70
2021/10/29 04:09:44;;;;;;;28.25;20.00;;;;;;;13.17;65.11;100613.94;4971164;28;120704;-70
2021/10/29 04:12:11;;;;;;;27.63;18.77;;;;;;;13.17;65.21;100607.63;4974788;28;120106;-70
2021/10/29 04:14:37;;;;;;;32.00;18.75;;;;;;;13.18;64.86;100609.94;4970097;28;121356;-70
2021/10/29 04:17:06;;;;;;;27.10;18.67;;;;;;;13.18;64.57;100609.19;4983932;28;120584;-70
2021/10/29 04:19:32;;;;;;;28.75;19.25;;;;;;;13.17;65.11;100610.38;4979233;28;119528;-70
2021/10/29 04:22:00;;;;;;;33.88;19.23;;;;;;;13.16;64.71;100609.63;4975262;28;122144;-70
2021/10/29 04:24:26;;;;;;;26.90;18.92;;;;;;;13.14;64.99;100603.84;4981525;28;120761;-70
2021/10/29 04:26:52;;;;;;;29.63;19.40;;;;;;;13.12;64.87;100602.78;4978729;28;119643;-70
2021/10/29 04:29:24;;;;;;;28.45;18.88;;;;;;;13.12;64.88;100605.53;4971005;28;120641;-70
2021/10/29 04:31:50;;;;;;;33.20;20.02;;;;;;;13.10;64.94;100596.97;4979145;28;120384;-70
2021/10/29 04:34:24;;;;;;;31.20;19.90;;;;;;;13.10;65.07;100596.97;4976040;28;120107;-70
2021/10/29 04:36:56;;;;;;;31.70;20.60;;;;;;;13.05;64.87;100584.63;4979403;28;120024;-70
2021/10/29 04:39:22;;;;;;;32.80;20.65;;;;;;;13.04;65.14;100588.63;4977514;28;119753;-70
2021/10/29 04:41:52;;;;;;;34.20;20.80;;;;;;;13.04;64.81;100596.13;4978909;28;120868;-70
2021/10/29 04:44:22;;;;;;;30.05;19.38;;;;;;;13.03;64.77;100586.34;4982168;28;120796;-70
2021/10/29 04:46:49;;;;;;;27.90;18.30;;;;;;;13.00;64.67;100585.25;4981785;28;119861;-70
2021/10/29 04:49:15;;;;;;;33.20;20.50;;;;;;;12.97;65.00;100583.44;4978303;28;119668;-70
2021/10/29 04:51:40;;;;;;;32.72;20.60;;;;;;;12.99;65.12;100580.22;4962283;28;122583;-70
2021/10/29 04:54:06;;;;;;;30.55;20.80;;;;;;;12.97;65.40;100582.69;4975249;28;119191;-70
2021/10/29 04:56:32;;;;;;;30.10;18.70;;;;;;;12.95;65.08;100568.63;4970968;28;119608;-70
2021/10/29 04:58:57;;;;;;;31.20;20.20;;;;;;;12.93;64.81;100580.09;4971533;28;119988;-71
2021/10/29 05:01:23;;;;;;;33.45;20.25;;;;;;;12.95;65.13;100574.91;4976957;28;119803;-70
2021/10/29 05:03:49;;;;;;;34.13;20.90;;;;;;;12.91;64.94;100580.56;4977751;28;121911;-70
2021/10/29 05:06:15;;;;;;;31.13;19.67;;;;;;;12.85;64.76;100571.44;4969295;28;119693;-70
2021/10/29 05:08:41;;;;;;;32.72;21.00;;;;;;;12.88;65.16;100580.75;4976043;28;120204;-70
2021/10/29 05:11:07;;;;;;;35.17;20.65;;;;;;;12.87;65.04;100585.50;4973439;28;120254;-70
2021/10/29 05:13:33;;;;;;;33.88;20.85;;;;;;;12.89;64.79;100582.28;4979785;28;119381;-70
2021/10/29 05:16:17;;;;;;;36.05;20.77;;;;;;;12.87;65.08;100585.50;4981670;28;119651;-70
2021/10/29 05:18:42;;;;;;;32.13;20.70;;;;;;;12.87;65.21;100584.75;4982880;28;119942;-70
2021/10/29 05:21:11;;;;;;;32.67;20.90;;;;;;;12.90;65.30;100572.78;4976287;28;119563;-70
2021/10/29 05:23:39;;;;;;;31.83;20.52;;;;;;;12.88;65.30;100578.75;4977095;28;119919;-70
2021/10/29 05:26:05;;;;;;;35.63;20.45;;;;;;;12.84;64.94;100564.41;4944664;28;120212;-71
2021/10/29 05:28:30;;;;;;;33.75;20.85;;;;;;;12.83;64.69;100562.91;4977203;28;120431;-70
2021/10/29 05:30:56;;;;;;;32.22;20.45;;;;;;;12.89;64.92;100563.78;4975692;28;119922;-70
2021/10/29 05:33:22;;;;;;;32.72;20.85;;;;;;;12.87;64.63;100563.47;4976179;28;121692;-70
2021/10/29 05:35:48;;;;;;;32.75;21.50;;;;;;;12.85;64.96;100560.44;4979224;28;119770;-71
2021/10/29 05:38:13;;;;;;;30.52;20.40;;;;;;;12.85;65.03;100549.44;4963314;28;119818;-70
2021/10/29 05:40:41;;;;;;;31.20;21.75;;;;;;;12.86;64.81;100541.94;4969926;28;119865;-70
2021/10/29 05:43:07;;;;;;;34.20;20.75;;;;;;;12.85;64.39;100549.44;4979681;28;120060;-71
2021/10/29 05:45:33;;;;;;;34.10;21.27;;;;;;;12.85;64.78;100548.66;4945340;28;120053;-70
2021/10/29 05:48:05;;;;;;;33.83;20.52;;;;;;;12.85;64.58;100560.44;4974180;28;120418;-70
2021/10/29 05:50:31;;;;;;;35.45;21.23;;;;;;;12.86;64.76;100561.97;4982045;28;119919;-70
2021/10/29 05:53:07;;;;;;;34.22;21.35;;;;;;;12.82;64.90;100555.88;4965467;28;119469;-70
2021/10/29 05:55:33;;;;;;;31.80;19.77;;;;;;;12.86;64.69;100566.69;4958547;28;122333;-70
2021/10/29 05:58:01;;;;;;;37.38;20.63;;;;;;;12.84;64.64;100552.66;4972315;28;119466;-70
2021/10/29 06:00:29;;;;;;;38.72;21.45;;;;;;;12.84;64.60;100561.66;4979458;28;119824;-70
2021/10/29 06:03:02;;;;;;;34.72;20.83;;;;;;;12.86;64.36;100553.69;4975353;28;119802;-70
2021/10/29 06:05:31;;;;;;;32.45;19.92;;;;;;;12.83;64.31;100560.16;4977077;28;120319;-70
2021/10/29 06:07:57;;;;;;;35.78;21.50;;;;;;;12.80;64.26;100554.81;4973233;28;119959;-70
2021/10/29 06:10:23;;;;;;;35.75;21.02;;;;;;;12.82;64.36;100561.38;4969822;28;119463;-71
2021/10/29 06:12:52;;;;;;;33.00;20.77;;;;;;;12.82;64.10;100560.63;4977925;28;119642;-70
2021/10/29 06:15:18;;;;;;;34.47;21.00;;;;;;;12.79;64.10;100554.06;4975272;28;119808;-70
2021/10/29 06:17:45;;;;;;;33.60;21.13;;;;;;;12.70;64.43;100553.34;4973531;28;121702;-70
2021/10/29 06:20:12;;;;;;;33.42;20.73;;;;;;;12.80;64.57;100563.84;4976921;28;120884;-70
2021/10/29 06:22:45;;;;;;;32.13;20.88;;;;;;;12.78;64.33;100551.78;4974480;28;121528;-71
2021/10/29 06:25:17;;;;;;;32.50;19.43;;;;;;;12.79;64.42;100567.81;4977554;28;119507;-70
2021/10/29 06:30:29;;;;;;;34.08;20.92;;;;;;;12.76;64.42;100568.72;4972335;28;120153;-71
2021/10/29 06:32:55;;;;;;;36.78;22.55;;;;;;;12.65;64.55;100546.50;4977405;28;120342;-70
2021/10/29 06:35:22;;;;;;;34.83;21.33;;;;;;;12.75;64.22;100556.19;4980004;28;120048;-70
2021/10/29 06:37:48;;;;;;;38.97;21.67;;;;;;;12.72;64.61;100548.88;4972601;28;121243;-70
2021/10/29 06:40:16;;;;;;;35.47;21.45;;;;;;;12.76;64.49;100546.72;4970914;28;119846;-70
2021/10/29 06:42:55;;;;;;;33.95;21.15;;;;;;;12.78;64.42;100557.28;4993620;28;119793;-71
2021/10/29 07:04:44;;;;;;;33.60;19.58;;;;;;;12.80;64.53;100558.34;4971187;28;120022;-70
2021/10/29 07:40:26;;;;;;;33.17;19.05;;;;;;;13.25;64.61;100566.75;4964265;28;120245;-70
2021/10/29 07:42:58;;;;;;;32.05;19.55;;;;;;;13.32;64.48;100566.41;4973281;28;119865;-70
2021/10/29 07:45:26;;;;;;;29.70;18.38;;;;;;;13.42;64.39;100573.34;4965721;28;120224;-69
2021/10/29 07:47:56;;;;;;;29.52;18.50;;;;;;;13.45;64.22;100566.88;4973209;28;120807;-69
2021/10/29 07:50:22;;;;;;;26.88;17.30;;;;;;;13.51;64.44;100565.78;4976345;28;120833;-69
2021/10/29 07:52:49;;;;;;;27.48;17.15;;;;;;;13.57;64.07;100570.63;4952124;28;121022;-69
2021/10/29 07:55:18;;;;;;;28.63;17.50;;;;;;;13.63;64.75;100577.00;4974812;28;120231;-69
2021/10/29 07:57:46;;;;;;;29.23;18.27;;;;;;;13.68;64.37;100574.31;4974580;28;120659;-70
2021/10/29 08:00:15;;;;;;;26.42;17.05;;;;;;;13.69;64.01;100575.84;4939497;28;121519;-69
2021/10/29 08:02:41;;;;;;;27.92;17.58;;;;;;;13.77;63.92;100576.25;4968647;28;119742;-70
2021/10/29 08:05:08;;;;;;;30.50;17.55;;;;;;;13.83;64.37;100577.88;4973530;28;120234;-70
2021/10/29 08:07:34;;;;;;;26.65;16.83;;;;;;;13.87;64.09;100590.69;4976897;28;120425;-70
2021/10/29 08:10:02;;;;;;;26.75;17.05;;;;;;;13.91;64.09;100591.25;4975950;28;119495;-70
2021/10/29 08:12:29;;;;;;;28.23;17.55;;;;;;;13.95;64.25;100597.34;4977088;28;120758;-69
2021/10/29 08:14:55;;;;;;;28.85;16.52;;;;;;;13.97;63.87;100579.13;4976030;28;120943;-69
2021/10/29 08:17:20;;;;;;;30.08;17.42;;;;;;;14.06;64.04;100590.03;4980661;28;119963;-69
2021/10/29 08:19:46;;;;;;;26.35;16.25;;;;;;;14.11;64.19;100594.13;4973632;28;120243;-69
2021/10/29 08:22:13;;;;;;;29.27;17.65;;;;;;;14.16;64.61;100593.44;4973506;28;120582;-69
2021/10/29 08:24:39;;;;;;;29.40;17.25;;;;;;;14.21;63.80;100592.78;4978219;28;119679;-70
2021/10/29 08:27:08;;;;;;;27.58;16.70;;;;;;;14.22;62.97;100582.53;4973840;28;119939;-70
2021/10/29 08:29:35;;;;;;;23.58;15.70;;;;;;;14.24;62.62;100591.06;4980748;28;119962;-70
2021/10/29 08:32:01;;;;;;;26.98;15.70;;;;;;;14.19;63.02;100581.44;4956978;28;120319;-70
2021/10/29 08:34:28;;;;;;;24.70;14.88;;;;;;;14.30;63.25;100583.63;4971862;28;121132;-70
2021/10/29 08:36:58;;;;;;;25.13;15.98;;;;;;;14.36;63.83;100593.53;4972403;28;119727;-70
2021/10/29 08:39:25;;;;;;;27.65;17.13;;;;;;;14.42;63.82;100588.06;4970504;28;119866;-70
2021/10/29 08:41:52;;;;;;;24.40;15.40;;;;;;;14.49;63.11;100596.00;4972422;28;119432;-70
2021/10/29 08:44:18;;;;;;;28.38;16.60;;;;;;;14.53;63.87;100580.00;4972973;28;120360;-69
2021/10/29 08:46:44;;;;;;;28.00;16.58;;;;;;;14.56;64.10;100584.56;4968292;28;119864;-70
2021/10/29 08:49:11;;;;;;;26.33;15.15;;;;;;;14.67;63.31;100600.53;4974257;28;121794;-70
2021/10/29 08:51:38;;;;;;;23.20;15.38;;;;;;;14.73;63.56;100590.31;4976813;28;119963;-69
2021/10/29 08:54:06;;;;;;;26.90;15.13;;;;;;;14.77;63.91;100585.38;4973530;28;119456;-70
2021/10/29 08:56:32;;;;;;;23.60;15.98;;;;;;;14.83;63.89;100579.91;4975947;28;119715;-70
2021/10/29 08:59:23;;;;;;;23.00;15.40;;;;;;;14.86;63.66;100578.94;4970186;28;123567;-70
2021/10/29 09:05:00;;;;;;;25.35;15.65;;;;;;;14.96;63.15;100572.81;4977462;28;120251;-70
2021/10/29 09:33:07;;;;;;;20.05;12.70;;;;;;;15.49;62.88;100543.25;4972020;28;120083;-70
2021/10/29 09:35:36;;;;;;;23.13;14.02;;;;;;;15.53;62.57;100527.22;4969161;28;120474;-70
2021/10/29 09:38:03;;;;;;;21.73;13.35;;;;;;;15.56;62.76;100529.00;4975295;28;122153;-70
2021/10/29 09:41:03;;;;;;;20.92;13.30;;;;;;;15.66;62.35;100535.94;4972750;28;120566;-70
2021/10/29 09:43:45;;;;;;;19.63;12.95;;;;;;;15.70;62.51;100532.94;4957629;28;119628;-70
2021/10/29 09:46:12;;;;;;;19.35;13.05;;;;;;;15.77;62.40;100541.53;4968588;28;121099;-70
2021/10/29 09:48:45;;;;;;;18.63;12.35;;;;;;;15.82;62.18;100545.59;4967898;28;120283;-69
2021/10/29 09:51:13;;;;;;;20.52;12.93;;;;;;;15.86;62.04;100548.94;4972829;28;119573;-70
2021/10/29 09:58:58;;;;;;;18.40;11.82;;;;;;;15.94;61.69;100545.22;4974510;28;120030;-70
2021/10/29 10:01:25;;;;;;;24.25;13.65;;;;;;;15.97;61.90;100537.94;4973540;28;122082;-69
2021/10/29 10:03:52;;;;;;;20.08;12.60;;;;;;;16.01;61.41;100534.94;4966390;28;119736;-69
2021/10/29 10:06:20;;;;;;;18.08;12.20;;;;;;;16.05;61.43;100535.47;4969545;28;120513;-70
2021/10/29 10:08:47;;;;;;;22.00;13.23;;;;;;;16.05;61.72;100536.22;4968603;28;119865;-70
2021/10/29 10:11:14;;;;;;;20.48;13.35;;;;;;;16.10;61.34;100532.78;4971693;28;120016;-70
2021/10/29 10:13:44;;;;;;;24.70;13.13;;;;;;;16.12;61.00;100537.81;4967361;28;120489;-69
2021/10/29 10:16:13;;;;;;;25.92;13.02;;;;;;;16.13;61.13;100537.31;4968803;28;119955;-70
2021/10/29 10:18:40;;;;;;;23.17;12.13;;;;;;;16.17;61.04;100526.03;4967347;28;122060;-69
2021/10/29 10:21:13;;;;;;;19.45;12.10;;;;;;;16.21;60.98;100526.53;4956445;28;120995;-70
2021/10/29 10:23:45;;;;;;;19.53;12.30;;;;;;;16.25;61.42;100532.59;4941898;28;120215;-70
2021/10/29 10:27:02;;;;;;;19.25;13.13;;;;;;;16.26;61.79;100521.03;4971504;28;121153;-69
2021/10/29 10:48:39;;;;;;;22.58;12.52;;;;;;;16.50;60.81;100501.31;4977641;28;120008;-69
2021/10/29 10:51:32;;;;;;;18.75;12.75;;;;;;;16.54;60.05;100514.91;4973991;28;120386;-70
2021/10/29 10:54:25;;;;;;;19.17;12.90;;;;;;;16.57;60.19;100514.69;4970306;28;120146;-71
2021/10/29 11:10:15;;;;;;;18.42;12.43;;;;;;;16.79;60.80;100486.34;4973349;28;120270;-70
2021/10/29 11:12:41;;;;;;;21.50;13.00;;;;;;;16.84;60.78;100493.19;4968680;28;120465;-70
2021/10/29 11:15:11;;;;;;;15.60;11.30;;;;;;;16.87;60.44;100486.66;4973440;28;119585;-70
2021/10/29 11:17:46;;;;;;;16.75;11.20;;;;;;;16.91;60.73;100480.88;4968661;28;119681;-70
2021/10/29 11:20:34;;;;;;;20.33;12.00;;;;;;;16.96;60.49;100486.41;4959831;28;120252;-70
2021/10/29 11:23:22;;;;;;;19.15;11.45;;;;;;;17.00;60.78;100488.94;4969429;28;121033;-69
2021/10/29 11:25:55;;;;;;;22.38;11.77;;;;;;;17.03;61.01;100487.94;4966934;28;119882;-69
2021/10/29 11:28:30;;;;;;;18.63;11.88;;;;;;;17.04;60.94;100486.72;4973258;28;120317;-70
2021/10/29 11:31:00;;;;;;;19.90;11.63;;;;;;;17.03;61.05;100469.31;4968235;28;120269;-69
2021/10/29 11:33:27;;;;;;;22.02;11.32;;;;;;;17.10;60.87;100477.16;4974590;28;119843;-70
2021/10/29 11:35:58;;;;;;;18.25;12.20;;;;;;;17.10;60.29;100463.28;4950561;28;121870;-69
2021/10/29 11:38:24;;;;;;;16.60;11.52;;;;;;;17.11;59.69;100467.56;4965216;28;120189;-70
2021/10/29 11:40:52;;;;;;;21.63;12.02;;;;;;;17.14;60.41;100454.72;4976343;28;119889;-69
2021/10/29 11:43:21;;;;;;;19.25;11.77;;;;;;;17.17;59.98;100465.56;4955745;28;120323;-70
2021/10/29 11:45:49;;;;;;;17.05;11.73;;;;;;;17.21;59.77;100465.31;4965694;28;121670;-70
2021/10/29 11:48:16;;;;;;;15.13;10.73;;;;;;;17.25;59.40;100451.22;4974508;28;119894;-70
2021/10/29 11:50:43;;;;;;;16.77;11.45;;;;;;;17.30;60.12;100456.03;4976816;28;119534;-69
2021/10/29 11:53:13;;;;;;;19.95;11.45;;;;;;;17.35;60.20;100458.03;4945804;28;120935;-70
2021/10/29 11:58:17;;;;;;;16.52;11.52;;;;;;;17.40;59.94;100446.94;4954719;28;122008;-70
2021/10/29 12:06:15;;;;;;;18.42;11.25;;;;;;;17.53;59.40;100454.03;4973655;28;119997;-70
2021/10/29 12:08:40;;;;;;;17.92;11.07;;;;;;;17.56;59.33;100448.22;4970224;28;119507;-70
2021/10/29 12:11:07;;;;;;;17.58;10.77;;;;;;;17.58;59.42;100448.47;4967071;28;120125;-71
2021/10/29 12:13:36;;;;;;;18.10;10.38;;;;;;;17.61;58.65;100438.38;4969493;28;120539;-70
2021/10/29 12:16:12;;;;;;;18.45;10.60;;;;;;;17.68;59.40;100429.56;4971491;28;119643;-70
2021/10/29 12:18:43;;;;;;;15.00;9.90;;;;;;;17.70;59.57;100421.50;4975441;28;120814;-70
2021/10/29 12:21:19;;;;;;;16.48;10.73;;;;;;;17.74;59.14;100422.78;4968580;28;121328;-70
2021/10/29 12:23:48;;;;;;;18.70;10.68;;;;;;;17.74;58.62;100422.00;4975819;28;120083;-70
2021/10/29 12:26:21;;;;;;;16.75;10.95;;;;;;;17.79;58.64;100419.25;4978300;28;120007;-70
2021/10/29 12:28:56;;;;;;;13.48;9.23;;;;;;;17.81;58.72;100410.41;4976034;28;120086;-69
2021/10/29 12:31:54;;;;;;;16.63;9.63;;;;;;;17.82;58.54;100402.84;4974540;28;121086;-70
2021/10/29 12:34:42;;;;;;;16.92;10.15;;;;;;;17.79;59.46;100397.03;4974994;28;120745;-70
2021/10/29 13:01:53;;;;;;;17.52;10.85;;;;;;;17.96;58.62;100376.81;4969787;28;120238;-70
2021/10/29 13:04:21;;;;;;;16.85;10.25;;;;;;;17.96;58.02;100374.03;4975808;28;119591;-70
2021/10/29 13:06:55;;;;;;;17.50;9.85;;;;;;;17.94;56.97;100363.44;4981541;28;120181;-70
2021/10/29 13:09:28;;;;;;;14.25;9.63;;;;;;;17.92;57.80;100351.34;4970663;28;119987;-70
2021/10/29 13:11:58;;;;;;;14.80;10.25;;;;;;;17.97;58.36;100354.09;4973500;28;119903;-70
2021/10/29 13:16:56;;;;;;;17.30;9.98;;;;;;;18.02;57.92;100347.81;4974249;28;119792;-70
2021/10/29 13:54:17;;;;;;;17.67;8.95;;;;;;;18.10;59.54;100323.03;4975627;28;121884;-70
2021/10/29 14:31:53;;;;;;;12.75;7.57;;;;;;;18.42;58.13;100304.69;4971581;28;120708;-70
2021/10/29 14:34:42;;;;;;;19.85;7.97;;;;;;;18.41;58.23;100297.63;4972998;28;119366;-69
2021/10/29 14:37:18;;;;;;;10.75;7.47;;;;;;;18.47;59.11;100288.53;4975976;28;120032;-69
2021/10/29 15:07:19;;;;;;;12.00;8.23;;;;;;;18.27;59.96;100276.53;4970991;28;119554;-69
2021/10/29 15:18:02;;;;;;;13.50;8.15;;;;;;;18.01;60.04;100273.38;4977813;28;119447;-70
2021/10/29 15:42:18;;;;;;;16.00;7.75;;;;;;;17.60;61.52;100262.91;4976905;28;120060;-70
2021/10/29 15:44:34;;;;;;;13.85;8.32;;;;;;;17.54;61.59;100253.88;4977050;28;119512;-70
2021/10/29 15:47:02;;;;;;;14.13;7.72;;;;;;;17.53;61.63;100254.38;4977034;28;119859;-71
2021/10/29 15:52:04;;;;;;;15.25;7.72;;;;;;;17.41;61.70;100253.63;4960314;28;120092;-70
2021/10/29 15:54:33;;;;;;;10.73;7.82;;;;;;;17.41;61.70;100251.63;4980590;28;119953;-69
2021/10/29 15:57:03;;;;;;;12.70;7.57;;;;;;;17.38;61.67;100249.09;4963051;28;122272;-69